Vistas de Luquillo, Puerto Rico
Current Conditions -  °F | °C
As of 12:10 AM on Friday 31 Oct 2014 (Local Time) from TJNR Reporting Station
Light Rain Light Rain  
Wind Chill: 79°   Ceiling: 4500
Heat Index: 83°   Visibility: 2mi
Dew Point: 76°   Wind: 5mph
Humidity: 90%   Direction: 150°SSE
Pressure: 29.87"   Gusts: NA
Location:  18.3744°N, 65.7168°W
Report Text: TJNR 310410Z AUTO 15004KT 2SM -RA BR SCT028 SCT038 BKN045 26/24 A2987 RMK AO2 RAB0359 P0013 T02610244 $
Loading
Personal Weather Stations






























Interactive Weather Map
Tropical Storm Tracking
New forecast layout! Learn more

10-Day Weather Forecast

Advertisements
Track Severe Weather on mobile